Yukuhashi, Japan
Current Conditions -  °F | °C
As of 2:00 AM on Sunday 26 Oct 2014 (Local Time) from RJFR Reporting Station
Few Clouds Few Clouds  
Wind Chill: 64°   Ceiling: Unl
Heat Index: 64°   Visibility: 5mi
Dew Point: 61°   Wind: 5mph
Humidity: 88%   Direction: 320°NW
Pressure: 30.09"   Gusts: NA
Location:  33.73°N, 130.97°E
Report Text: RJFR 251700Z 32004KT 8000 FEW030 18/16 Q1019
Loading
Personal Weather Stations






























Interactive Weather Map
Tropical Storm Tracking
New forecast layout! Learn more

10-Day Weather Forecast

Advertisements
Track Severe Weather on mobile